Time;durP1;ratioP1;P1;durP2;ratioP2;P2;SDS_P1;SDS_P2;PMS_P1;PMS_P2;Temp;Humidity;BMP_temperature;BMP_pressure;BME280_temperature;BME280_humidity;BME280_pressure;Samples;Min_cycle;Max_cycle;Signal;HPM_P1;HPM_P2
2022/11/29 00:01:28;;;;;;;8.07;4.28;;;8.20;99.90;;;;;;5051921;28;20342;-75
2022/11/29 00:03:54;;;;;;;6.55;3.55;;;8.30;99.90;;;;;;5061375;28;20468;-75
2022/11/29 00:06:23;;;;;;;6.45;4.10;;;8.50;99.90;;;;;;5051205;28;20048;-75
2022/11/29 00:08:49;;;;;;;6.82;3.97;;;8.30;99.90;;;;;;5077666;28;20115;-75
2022/11/29 00:14:01;;;;;;;9.32;4.82;;;8.10;99.90;;;;;;5065043;28;20014;-75
2022/11/29 00:16:26;;;;;;;9.57;5.45;;;7.40;99.90;;;;;;5069814;28;20127;-75
2022/11/29 00:18:52;;;;;;;9.15;4.80;;;8.40;99.90;;;;;;5056871;28;20037;-75
2022/11/29 00:21:18;;;;;;;7.55;4.20;;;8.50;99.90;;;;;;5059425;28;20567;-75
2022/11/29 00:23:43;;;;;;;7.90;4.20;;;7.30;99.90;;;;;;5057478;28;20045;-75
2022/11/29 00:26:09;;;;;;;8.07;4.45;;;7.50;99.90;;;;;;5056933;28;20403;-75
2022/11/29 00:28:35;;;;;;;8.10;4.60;;;7.40;99.90;;;;;;5051034;28;20051;-75
2022/11/29 00:31:23;;;;;;;8.80;5.00;;;8.40;99.90;;;;;;5055152;28;20041;-75
2022/11/29 00:33:49;;;;;;;9.95;5.82;;;7.30;99.90;;;;;;5049436;28;20563;-74
2022/11/29 00:36:15;;;;;;;10.45;5.55;;;8.40;99.90;;;;;;5059262;28;20068;-76
2022/11/29 00:38:41;;;;;;;7.80;4.82;;;7.70;99.90;;;;;;5062529;28;20446;-75
2022/11/29 00:41:08;;;;;;;8.13;4.60;;;7.20;99.90;;;;;;5058523;28;20467;-75
2022/11/29 00:43:34;;;;;;;7.53;4.97;;;8.20;99.90;;;;;;5057437;28;20396;-76
2022/11/29 00:46:01;;;;;;;8.90;5.30;;;8.30;99.90;;;;;;5062047;28;20071;-75
2022/11/29 00:48:26;;;;;;;9.95;6.05;;;7.30;99.90;;;;;;5062327;28;20060;-76
2022/11/29 00:50:52;;;;;;;9.27;5.68;;;8.30;99.90;;;;;;5059238;28;20058;-74
2022/11/29 00:53:18;;;;;;;7.93;5.00;;;8.40;99.90;;;;;;5058765;28;20189;-74
2022/11/29 00:55:48;;;;;;;7.60;4.75;;;7.20;99.90;;;;;;5054228;28;20041;-75
2022/11/29 00:58:14;;;;;;;9.68;5.85;;;7.30;99.90;;;;;;5059709;28;20111;-75
2022/11/29 01:00:39;;;;;;;7.45;4.38;;;7.10;99.90;;;;;;5049143;28;20191;-76
2022/11/29 01:03:06;;;;;;;8.07;4.82;;;7.10;99.90;;;;;;5062665;28;20103;-75
2022/11/29 01:05:31;;;;;;;7.00;4.45;;;8.40;99.90;;;;;;5071328;28;20041;-76
2022/11/29 01:07:57;;;;;;;7.55;4.80;;;7.10;99.90;;;;;;5062545;28;20403;-75
2022/11/29 01:10:23;;;;;;;10.20;6.38;;;8.40;99.90;;;;;;5048793;28;20088;-75
2022/11/29 01:12:49;;;;;;;7.97;5.25;;;8.20;99.90;;;;;;5062954;28;20041;-76
2022/11/29 01:15:15;;;;;;;8.40;4.95;;;7.40;99.90;;;;;;5068945;28;20059;-75
2022/11/29 01:17:40;;;;;;;8.27;4.85;;;8.40;99.90;;;;;;5054280;28;20040;-75
2022/11/29 01:20:08;;;;;;;7.75;4.93;;;7.50;99.90;;;;;;5063327;28;20052;-75
2022/11/29 01:22:35;;;;;;;11.90;6.80;;;8.00;99.90;;;;;;5063598;28;20044;-75
2022/11/29 01:25:01;;;;;;;12.00;7.85;;;7.90;99.90;;;;;;5049520;28;20408;-76
2022/11/29 01:27:28;;;;;;;8.70;5.80;;;7.50;99.90;;;;;;5051719;28;20052;-75
2022/11/29 01:29:53;;;;;;;8.45;5.80;;;7.10;99.90;;;;;;5063887;28;20037;-76
2022/11/29 01:32:19;;;;;;;7.93;4.82;;;8.40;99.90;;;;;;5051522;28;20056;-75
2022/11/29 01:34:44;;;;;;;8.27;4.88;;;7.10;99.90;;;;;;5055943;28;20055;-75
2022/11/29 01:37:10;;;;;;;8.00;4.97;;;7.70;99.90;;;;;;5069766;28;20121;-75
2022/11/29 01:39:36;;;;;;;8.00;5.18;;;7.40;99.90;;;;;;5059172;28;20057;-75
2022/11/29 01:42:02;;;;;;;8.23;4.95;;;8.40;99.90;;;;;;5048937;28;20033;-76
2022/11/29 01:44:28;;;;;;;8.05;4.95;;;7.20;99.90;;;;;;5066427;28;20436;-75
2022/11/29 01:46:54;;;;;;;7.32;4.60;;;7.70;99.90;;;;;;5069568;28;20053;-76
2022/11/29 01:49:40;;;;;;;;;;;7.30;99.90;;;;;;5055339;28;20391;-76
2022/11/29 01:52:15;;;;;;;7.78;4.55;;;7.70;99.90;;;;;;5063720;28;19940;-76
2022/11/29 01:54:45;;;;;;;8.07;4.57;;;8.40;99.90;;;;;;5056347;28;20114;-76
2022/11/29 01:57:13;;;;;;;10.18;6.40;;;8.30;99.90;;;;;;5056016;28;20603;-76
2022/11/29 01:59:43;;;;;;;7.15;4.90;;;7.50;99.90;;;;;;5072701;28;20044;-77
2022/11/29 02:02:13;;;;;;;9.65;5.78;;;7.40;99.90;;;;;;5057501;28;20049;-76
2022/11/29 02:04:41;;;;;;;8.50;5.53;;;7.50;99.90;;;;;;5064059;28;20036;-74
2022/11/29 02:07:08;;;;;;;8.00;5.00;;;7.10;99.90;;;;;;5061263;28;20403;-74
2022/11/29 02:09:33;;;;;;;13.40;8.15;;;8.30;99.90;;;;;;5063639;28;20119;-74
2022/11/29 02:12:15;;;;;;;15.23;8.73;;;7.00;99.90;;;;;;5071561;28;20223;-75
2022/11/29 02:15:40;;;;;;;12.85;8.15;;;7.20;99.90;;;;;;5072279;28;20118;-75
2022/11/29 02:18:19;;;;;;;13.02;8.02;;;8.30;99.90;;;;;;5049921;28;20045;-75
2022/11/29 02:21:08;;;;;;;13.07;8.15;;;8.20;99.90;;;;;;5016189;28;20129;-76
2022/11/29 02:24:01;;;;;;;10.90;6.90;;;7.30;99.90;;;;;;5048589;28;20494;-76
2022/11/29 02:26:47;;;;;;;10.35;6.72;;;7.10;99.90;;;;;;5038589;28;20079;-75
2022/11/29 02:29:19;;;;;;;8.55;5.78;;;7.00;99.90;;;;;;5052661;28;20041;-76
2022/11/29 02:32:22;;;;;;;7.63;4.75;;;7.10;99.90;;;;;;5051389;28;20048;-76
2022/11/29 02:34:56;;;;;;;7.68;4.97;;;8.20;99.90;;;;;;5054760;28;20037;-76
2022/11/29 02:37:54;;;;;;;6.10;4.43;;;7.40;99.90;;;;;;5059132;28;20036;-76
2022/11/29 02:40:57;;;;;;;5.80;3.90;;;8.20;99.90;;;;;;5059717;28;20053;-75
2022/11/29 02:43:45;;;;;;;4.10;2.92;;;7.60;99.90;;;;;;5053656;28;20515;-76
2022/11/29 02:46:25;;;;;;;4.47;2.67;;;7.70;99.90;;;;;;5060847;28;20048;-75
2022/11/29 02:48:59;;;;;;;3.88;2.67;;;7.10;99.90;;;;;;5051804;28;20048;-77
2022/11/29 02:51:41;;;;;;;3.95;2.80;;;7.00;99.90;;;;;;5055642;28;20049;-76
2022/11/29 02:54:25;;;;;;;4.53;3.20;;;7.80;99.90;;;;;;5070860;28;20041;-76
2022/11/29 02:56:59;;;;;;;5.40;3.95;;;7.10;99.90;;;;;;5056777;28;20037;-76
2022/11/29 02:59:52;;;;;;;7.75;4.88;;;8.00;99.90;;;;;;5065813;28;20096;-76
2022/11/29 03:02:39;;;;;;;7.28;4.40;;;6.90;99.90;;;;;;5061304;28;20059;-77
2022/11/29 03:05:37;;;;;;;4.60;3.55;;;8.00;99.90;;;;;;5053843;28;20476;-76
2022/11/29 03:08:27;;;;;;;4.88;3.65;;;7.20;99.90;;;;;;5059058;28;20124;-76
2022/11/29 03:11:06;;;;;;;4.75;3.38;;;6.80;99.90;;;;;;5052179;28;20543;-75
2022/11/29 03:13:55;;;;;;;4.07;3.20;;;7.00;99.90;;;;;;5059045;28;20037;-76
2022/11/29 03:16:43;;;;;;;5.03;3.20;;;7.80;99.90;;;;;;5018596;28;20716;-76
2022/11/29 03:19:47;;;;;;;4.85;3.53;;;6.80;99.90;;;;;;5059382;28;20467;-75
2022/11/29 03:22:37;;;;;;;3.78;2.65;;;6.80;99.90;;;;;;5069905;28;20048;-77
2022/11/29 03:25:18;;;;;;;4.13;2.90;;;7.50;99.90;;;;;;5038633;28;20400;-76
2022/11/29 03:27:57;;;;;;;5.93;4.07;;;7.10;99.90;;;;;;5038013;28;20102;-76
2022/11/29 03:30:23;;;;;;;4.65;3.40;;;7.90;99.90;;;;;;5050153;28;20103;-76
2022/11/29 03:33:03;;;;;;;4.93;3.35;;;7.30;99.90;;;;;;5062593;28;20139;-76
2022/11/29 03:35:41;;;;;;;4.38;3.40;;;7.80;99.90;;;;;;5061039;28;20047;-76
2022/11/29 03:38:13;;;;;;;4.47;3.30;;;6.70;99.90;;;;;;5063653;28;20048;-76
2022/11/29 03:41:19;;;;;;;5.70;4.45;;;6.80;99.90;;;;;;5062397;28;20054;-76
2022/11/29 03:44:02;;;;;;;6.68;4.55;;;7.50;99.90;;;;;;5008372;28;20508;-76
2022/11/29 03:46:51;;;;;;;8.98;6.45;;;7.60;99.90;;;;;;5052671;28;20059;-76
2022/11/29 03:49:22;;;;;;;6.00;4.63;;;7.80;99.90;;;;;;5051067;28;20067;-76
2022/11/29 03:52:26;;;;;;;5.03;3.88;;;6.50;99.90;;;;;;5069592;28;20066;-76
2022/11/29 03:54:55;;;;;;;7.72;5.43;;;7.30;99.90;;;;;;4991714;28;20580;-76
2022/11/29 03:57:30;;;;;;;6.85;4.85;;;7.60;99.90;;;;;;4973307;28;20514;-77
2022/11/29 04:00:09;;;;;;;6.68;4.82;;;6.60;99.90;;;;;;5029887;28;20047;-76
2022/11/29 04:02:53;;;;;;;5.63;4.03;;;7.50;99.90;;;;;;5050724;28;20056;-76
2022/11/29 04:05:53;;;;;;;5.50;4.22;;;7.20;99.90;;;;;;5067505;28;20104;-76
2022/11/29 04:08:33;;;;;;;4.97;3.63;;;7.20;99.90;;;;;;5052786;28;20048;-76
2022/11/29 04:11:14;;;;;;;4.10;3.00;;;7.10;99.90;;;;;;5051092;28;20117;-76
2022/11/29 04:14:24;;;;;;;3.42;2.65;;;7.60;99.90;;;;;;5067980;28;20052;-76
2022/11/29 04:17:13;;;;;;;2.55;2.05;;;7.30;99.90;;;;;;5001914;28;20135;-77
2022/11/29 04:20:03;;;;;;;2.75;2.33;;;6.70;99.90;;;;;;5039548;28;20048;-76
2022/11/29 04:22:31;;;;;;;3.95;2.90;;;7.30;99.90;;;;;;5063712;28;20115;-76
2022/11/29 04:25:31;;;;;;;3.85;2.95;;;7.50;99.90;;;;;;5068352;28;20051;-76
2022/11/29 04:28:12;;;;;;;2.97;2.33;;;6.70;99.90;;;;;;5064371;28;20442;-76
2022/11/29 04:31:16;;;;;;;2.72;2.10;;;7.60;99.90;;;;;;5053046;28;20601;-77
2022/11/29 04:34:13;;;;;;;3.30;2.65;;;7.40;99.90;;;;;;5010477;28;20056;-76
2022/11/29 04:37:21;;;;;;;4.28;3.47;;;6.50;99.90;;;;;;5052207;28;20480;-76
2022/11/29 04:40:02;;;;;;;4.53;3.57;;;6.30;99.90;;;;;;5054249;28;20063;-76
2022/11/29 04:43:08;;;;;;;5.22;4.18;;;7.30;99.90;;;;;;5053067;28;20285;-77
2022/11/29 04:45:49;;;;;;;5.50;4.45;;;6.50;99.90;;;;;;4979717;28;20046;-76
2022/11/29 04:48:17;;;;;;;5.55;4.28;;;6.50;99.90;;;;;;5042397;28;20147;-76
2022/11/29 04:51:02;;;;;;;5.95;4.75;;;6.30;99.90;;;;;;5051920;28;20117;-76
2022/11/29 04:53:36;;;;;;;5.68;4.22;;;6.20;99.90;;;;;;5049678;28;20149;-76
2022/11/29 04:56:37;;;;;;;4.05;3.28;;;6.70;99.90;;;;;;5038873;28;20546;-76
2022/11/29 04:59:38;;;;;;;3.67;3.03;;;7.30;99.90;;;;;;5023392;28;20067;-76
2022/11/29 05:02:32;;;;;;;4.20;3.38;;;6.90;99.90;;;;;;5050026;28;20044;-76
2022/11/29 05:05:35;;;;;;;4.90;3.70;;;6.10;99.90;;;;;;5049608;28;20051;-76
2022/11/29 05:08:27;;;;;;;4.47;3.47;;;7.30;99.90;;;;;;5036694;28;20335;-76
2022/11/29 05:11:19;;;;;;;4.35;3.30;;;7.00;99.90;;;;;;5036833;28;20036;-76
2022/11/29 05:14:09;;;;;;;7.95;5.38;;;6.10;99.90;;;;;;5065090;28;20063;-76
2022/11/29 05:16:44;;;;;;;6.22;5.15;;;7.30;99.90;;;;;;5059140;28;20041;-76
2022/11/29 05:19:37;;;;;;;7.38;5.85;;;6.40;99.90;;;;;;5057585;28;20057;-76
2022/11/29 05:22:26;;;;;;;6.30;4.85;;;7.10;99.90;;;;;;5067968;28;20048;-76
2022/11/29 05:25:10;;;;;;;4.72;3.50;;;6.00;99.90;;;;;;5057251;28;20041;-76
2022/11/29 05:28:14;;;;;;;3.80;3.17;;;6.00;99.90;;;;;;5049125;28;20045;-71
2022/11/29 05:30:48;;;;;;;4.80;3.70;;;6.10;99.90;;;;;;5026192;28;20044;-71
2022/11/29 05:33:20;;;;;;;3.92;3.03;;;6.30;99.90;;;;;;5062061;28;20476;-76
2022/11/29 05:35:51;;;;;;;3.78;3.28;;;7.00;99.90;;;;;;5060667;28;20138;-75
2022/11/29 05:38:29;;;;;;;4.32;2.80;;;6.80;99.90;;;;;;5054101;28;20123;-70
2022/11/29 05:41:20;;;;;;;5.60;3.80;;;6.20;99.90;;;;;;5057050;28;20146;-70
2022/11/29 05:43:53;;;;;;;3.92;3.15;;;6.30;99.90;;;;;;5050834;28;20064;-70
2022/11/29 05:46:52;;;;;;;5.07;3.80;;;5.90;99.90;;;;;;5059450;28;20059;-76
2022/11/29 05:49:37;;;;;;;5.90;4.45;;;6.30;99.90;;;;;;5049419;28;20041;-76
2022/11/29 05:52:20;;;;;;;6.97;5.03;;;6.70;99.90;;;;;;5051292;28;20045;-76
2022/11/29 05:55:02;;;;;;;5.95;4.20;;;5.80;99.90;;;;;;5061976;28;20660;-75
2022/11/29 05:57:42;;;;;;;6.57;4.55;;;5.80;99.90;;;;;;5050324;28;20068;-75
2022/11/29 06:00:11;;;;;;;5.70;3.97;;;6.00;99.90;;;;;;5057791;28;20036;-75
2022/11/29 06:02:51;;;;;;;5.50;3.80;;;5.90;99.90;;;;;;5069565;28;20478;-75
2022/11/29 06:05:27;;;;;;;5.88;3.92;;;6.80;99.90;;;;;;5078230;28;20063;-75
2022/11/29 06:08:02;;;;;;;6.75;4.45;;;6.00;99.90;;;;;;5054447;28;20049;-76
2022/11/29 06:10:31;;;;;;;5.85;4.22;;;5.90;99.90;;;;;;5053523;28;20138;-76
2022/11/29 06:13:22;;;;;;;4.93;3.45;;;6.20;99.90;;;;;;5052071;28;20131;-78
2022/11/29 06:16:13;;;;;;;3.85;2.70;;;6.80;99.90;;;;;;5058598;28;20098;-78
2022/11/29 06:19:12;;;;;;;3.00;2.30;;;6.00;99.90;;;;;;5057742;28;20033;-78
2022/11/29 06:21:52;;;;;;;3.78;3.08;;;6.00;99.90;;;;;;5056864;28;20045;-78
2022/11/29 06:24:34;;;;;;;7.07;3.78;;;6.60;99.90;;;;;;5055362;28;20507;-75
2022/11/29 06:27:36;;;;;;;4.50;2.90;;;6.90;99.90;;;;;;5059129;28;20103;-75
2022/11/29 06:30:12;;;;;;;6.63;4.65;;;6.10;99.90;;;;;;5040556;28;20550;-76
2022/11/29 06:32:46;;;;;;;8.30;4.93;;;7.00;99.90;;;;;;5070495;28;20139;-76
2022/11/29 06:35:42;;;;;;;10.45;5.32;;;5.80;99.90;;;;;;5060856;28;20108;-77
2022/11/29 06:38:24;;;;;;;7.07;4.60;;;6.40;99.90;;;;;;5065786;28;20484;-77
2022/11/29 06:40:50;;;;;;;7.03;4.70;;;6.30;99.90;;;;;;5057324;28;20048;-76
2022/11/29 06:43:16;;;;;;;6.60;3.88;;;7.00;99.90;;;;;;5059622;28;20099;-70
2022/11/29 06:45:49;;;;;;;5.38;3.55;;;5.80;99.90;;;;;;5054672;28;20053;-69
2022/11/29 06:48:25;;;;;;;3.72;2.72;;;5.70;99.90;;;;;;5050802;28;20044;-70
2022/11/29 06:51:07;;;;;;;3.97;2.72;;;6.80;99.90;;;;;;5062444;28;20480;-70
2022/11/29 06:53:50;;;;;;;4.32;3.20;;;7.00;99.90;;;;;;5075056;28;20063;-70
2022/11/29 06:56:34;;;;;;;3.67;2.47;;;7.00;99.90;;;;;;5060034;28;20046;-70
2022/11/29 06:59:12;;;;;;;5.20;3.40;;;6.70;99.90;;;;;;5047936;28;20050;-76
2022/11/29 07:01:44;;;;;;;5.22;3.63;;;6.90;99.90;;;;;;5072393;28;20414;-76
2022/11/29 07:04:31;;;;;;;5.45;3.50;;;6.00;99.90;;;;;;5053437;28;20045;-76
2022/11/29 07:06:57;;;;;;;5.50;4.00;;;7.00;99.90;;;;;;5069753;28;20044;-75
2022/11/29 07:09:29;;;;;;;4.60;3.45;;;6.90;99.90;;;;;;5071993;28;20055;-76
2022/11/29 07:11:55;;;;;;;6.82;4.18;;;6.20;99.90;;;;;;5071737;28;20051;-76
2022/11/29 07:14:21;;;;;;;4.07;3.20;;;6.10;99.90;;;;;;5055181;28;20040;-76
2022/11/29 07:17:26;;;;;;;4.25;3.10;;;6.00;99.90;;;;;;5054981;28;20079;-76
2022/11/29 07:20:13;;;;;;;3.67;2.72;;;5.90;99.90;;;;;;5071567;28;20531;-76
2022/11/29 07:23:04;;;;;;;5.45;3.17;;;5.90;99.90;;;;;;5054856;28;20036;-76
2022/11/29 07:25:56;;;;;;;4.15;3.30;;;6.50;99.90;;;;;;5070472;28;20052;-76
2022/11/29 07:28:32;;;;;;;6.15;4.32;;;7.20;99.90;;;;;;5054901;28;20044;-76
2022/11/29 07:31:01;;;;;;;6.07;4.55;;;6.90;99.90;;;;;;5071443;28;20056;-76
2022/11/29 07:33:53;;;;;;;6.03;4.25;;;6.70;99.90;;;;;;5054728;28;20494;-76
2022/11/29 07:36:36;;;;;;;3.90;2.92;;;6.10;99.90;;;;;;5019511;28;20131;-76
2022/11/29 07:39:22;;;;;;;5.32;3.10;;;5.90;99.90;;;;;;5071264;28;20118;-76
2022/11/29 07:42:07;;;;;;;5.28;3.70;;;5.80;99.90;;;;;;5054693;28;20503;-76
2022/11/29 07:45:02;;;;;;;7.40;4.50;;;7.00;99.90;;;;;;5054426;28;20229;-76
2022/11/29 07:47:28;;;;;;;7.18;4.25;;;6.90;99.90;;;;;;5037072;28;20432;-76
2022/11/29 07:49:53;;;;;;;6.43;4.55;;;7.00;99.90;;;;;;5071104;28;20044;-76
2022/11/29 07:52:19;;;;;;;5.55;4.25;;;7.00;99.90;;;;;;5054256;28;20055;-77
2022/11/29 07:54:45;;;;;;;4.50;3.40;;;6.00;99.90;;;;;;5071559;28;20032;-78
2022/11/29 07:57:10;;;;;;;3.72;3.10;;;5.90;99.90;;;;;;5071844;28;20055;-78
2022/11/29 07:59:36;;;;;;;4.53;3.00;;;7.00;99.90;;;;;;5071567;28;20076;-77
2022/11/29 08:02:02;;;;;;;3.47;2.63;;;6.80;99.90;;;;;;5054236;28;20044;-77
2022/11/29 08:04:27;;;;;;;4.60;2.97;;;6.80;99.90;;;;;;5070669;28;20045;-77
2022/11/29 08:06:56;;;;;;;3.85;2.90;;;5.80;99.90;;;;;;5071397;28;20124;-77
2022/11/29 08:09:21;;;;;;;3.78;2.85;;;7.00;99.90;;;;;;5069823;28;20044;-71
2022/11/29 08:11:47;;;;;;;3.58;2.70;;;6.70;99.90;;;;;;5053279;28;20040;-72
2022/11/29 08:14:13;;;;;;;4.93;3.50;;;5.90;99.90;;;;;;5036988;28;20044;-71
2022/11/29 08:16:39;;;;;;;7.28;4.78;;;6.40;99.90;;;;;;5070174;28;20549;-72
2022/11/29 08:19:04;;;;;;;8.65;6.15;;;6.20;99.90;;;;;;5070040;28;20479;-72
2022/11/29 08:21:30;;;;;;;7.78;5.35;;;6.70;99.90;;;;;;5053133;28;20099;-71
2022/11/29 08:23:55;;;;;;;7.18;5.25;;;6.00;99.90;;;;;;5053227;28;20043;-72
2022/11/29 08:26:21;;;;;;;6.97;4.70;;;6.70;99.90;;;;;;5052995;28;20078;-72
2022/11/29 08:28:51;;;;;;;5.78;4.05;;;6.50;99.90;;;;;;5069522;28;20125;-71
2022/11/29 08:31:18;;;;;;;5.32;3.80;;;7.20;99.90;;;;;;5069479;28;20064;-72
2022/11/29 08:33:44;;;;;;;5.72;3.80;;;6.70;99.90;;;;;;5069467;28;20078;-71
2022/11/29 08:36:15;;;;;;;6.47;4.57;;;7.30;99.90;;;;;;5069521;28;20048;-71
2022/11/29 08:38:41;;;;;;;4.80;3.25;;;7.40;99.90;;;;;;5052544;28;20053;-72
2022/11/29 08:41:09;;;;;;;5.22;3.85;;;7.40;99.90;;;;;;5052304;28;20059;-71
2022/11/29 08:43:35;;;;;;;5.03;3.50;;;7.40;99.90;;;;;;5069245;28;20093;-71
2022/11/29 08:46:01;;;;;;;5.78;3.45;;;7.60;99.90;;;;;;5052507;28;20131;-71
2022/11/29 08:48:26;;;;;;;10.13;5.15;;;7.50;99.90;;;;;;5069262;28;20056;-72
2022/11/29 08:50:54;;;;;;;7.07;4.70;;;7.30;99.90;;;;;;5068939;28;20376;-72
2022/11/29 08:56:05;;;;;;;8.20;4.57;;;6.80;99.90;;;;;;5070067;28;20461;-72
2022/11/29 08:58:31;;;;;;;6.60;4.13;;;6.60;99.90;;;;;;5068663;28;20507;-72
2022/11/29 09:00:57;;;;;;;4.57;3.08;;;6.70;99.90;;;;;;5052304;28;20060;-71
2022/11/29 09:06:10;;;;;;;3.33;2.30;;;7.10;99.90;;;;;;5070124;28;20050;-75
2022/11/29 09:08:35;;;;;;;4.63;2.80;;;6.70;99.90;;;;;;5070053;28;20373;-76
2022/11/29 09:11:12;;;;;;;3.92;2.85;;;7.10;99.90;;;;;;5070034;28;20055;-76
2022/11/29 09:13:39;;;;;;;5.20;3.37;;;7.80;99.90;;;;;;5070240;28;20052;-76
2022/11/29 09:16:06;;;;;;;4.90;2.90;;;7.80;99.90;;;;;;5069763;28;20047;-76
2022/11/29 09:18:32;;;;;;;5.05;2.92;;;7.90;99.90;;;;;;5069609;28;20097;-76
2022/11/29 09:20:58;;;;;;;5.82;3.10;;;8.30;99.90;;;;;;5053413;28;20127;-76
2022/11/29 09:23:24;;;;;;;6.05;2.92;;;8.40;99.90;;;;;;5036926;28;20059;-76
2022/11/29 09:25:49;;;;;;;11.32;4.47;;;7.30;99.90;;;;;;5052937;28;20046;-76
2022/11/29 09:28:15;;;;;;;8.05;3.83;;;8.30;99.90;;;;;;5069526;28;20582;-76
2022/11/29 09:30:41;;;;;;;6.47;3.67;;;7.50;99.90;;;;;;5069008;28;20053;-75
2022/11/29 09:33:06;;;;;;;7.00;3.35;;;7.70;99.90;;;;;;5069840;28;20067;-77
2022/11/29 09:35:33;;;;;;;9.32;4.85;;;8.60;99.90;;;;;;5069202;28;20076;-76
2022/11/29 09:37:59;;;;;;;9.75;4.85;;;7.90;99.90;;;;;;5070987;28;20051;-76
2022/11/29 09:40:38;;;;;;;8.38;4.22;;;8.40;99.90;;;;;;5069117;28;20044;-76
2022/11/29 09:43:19;;;;;;;6.85;3.80;;;7.90;99.90;;;;;;5069946;28;20106;-76
2022/11/29 09:45:54;;;;;;;9.23;4.22;;;8.90;99.90;;;;;;5069694;28;20384;-75
2022/11/29 09:48:31;;;;;;;6.90;4.07;;;8.80;99.90;;;;;;5069654;28;20083;-76
2022/11/29 09:51:06;;;;;;;10.98;4.10;;;8.80;99.90;;;;;;5070019;28;20515;-76
2022/11/29 09:54:16;;;;;;;6.53;3.55;;;8.10;99.90;;;;;;5069623;28;20079;-76
2022/11/29 09:56:46;;;;;;;9.02;4.20;;;8.50;99.90;;;;;;5070965;28;20049;-77
2022/11/29 09:59:27;;;;;;;6.60;3.42;;;8.50;99.90;;;;;;5069373;28;20047;-77
2022/11/29 10:02:01;;;;;;;6.15;3.05;;;8.90;99.90;;;;;;5069354;28;20048;-77
2022/11/29 10:04:39;;;;;;;6.93;3.60;;;8.10;99.90;;;;;;5069236;28;20049;-75
2022/11/29 10:07:31;;;;;;;5.45;2.95;;;8.80;99.90;;;;;;5073756;28;20505;-75
2022/11/29 10:10:13;;;;;;;4.40;3.20;;;8.80;99.90;;;;;;5056152;28;20044;-76
2022/11/29 10:12:45;;;;;;;5.80;2.83;;;8.50;99.90;;;;;;5072771;28;20040;-76
2022/11/29 10:15:26;;;;;;;3.95;2.70;;;9.00;99.90;;;;;;5073942;28;20075;-70
2022/11/29 10:18:21;;;;;;;3.00;2.30;;;9.10;99.90;;;;;;5072490;28;20063;-71
2022/11/29 10:20:49;;;;;;;4.35;2.97;;;9.30;99.90;;;;;;5071990;28;20131;-71
2022/11/29 10:23:36;;;;;;;4.95;3.35;;;8.50;99.90;;;;;;5071875;28;20554;-71
2022/11/29 10:26:06;;;;;;;3.65;2.80;;;9.20;99.90;;;;;;5071951;28;20144;-71
2022/11/29 10:28:35;;;;;;;3.97;2.60;;;9.60;99.90;;;;;;5072370;28;20064;-70
2022/11/29 10:31:28;;;;;;;5.35;3.22;;;8.90;99.90;;;;;;5073216;28;20585;-70
2022/11/29 10:33:55;;;;;;;5.68;3.20;;;9.30;99.90;;;;;;5061782;28;20091;-71
2022/11/29 10:36:48;;;;;;;5.65;3.17;;;8.80;99.90;;;;;;5073525;28;20068;-71
2022/11/29 10:39:27;;;;;;;4.78;3.15;;;9.50;99.90;;;;;;5054974;28;20061;-71
2022/11/29 10:41:55;;;;;;;5.60;3.20;;;9.50;99.90;;;;;;5054951;28;20049;-71
2022/11/29 10:44:23;;;;;;;4.20;2.80;;;9.70;99.90;;;;;;5071620;28;20369;-70
2022/11/29 10:46:49;;;;;;;5.68;3.15;;;9.70;99.90;;;;;;5071900;28;20502;-70
2022/11/29 10:49:18;;;;;;;5.75;3.40;;;9.00;99.90;;;;;;5054877;28;20047;-70
2022/11/29 10:51:45;;;;;;;5.03;2.83;;;9.10;99.90;;;;;;5071499;28;20056;-71
2022/11/29 10:54:37;;;;;;;6.22;3.60;;;9.50;99.90;;;;;;5071881;28;20042;-70
2022/11/29 10:57:13;;;;;;;4.78;2.92;;;9.20;99.90;;;;;;5055943;28;20063;-71
2022/11/29 10:59:38;;;;;;;8.35;4.82;;;9.80;99.90;;;;;;5061103;28;20419;-71
2022/11/29 11:02:18;;;;;;;7.53;4.82;;;9.80;99.90;;;;;;5051133;28;20037;-71
2022/11/29 11:04:46;;;;;;;7.22;4.50;;;9.20;99.90;;;;;;5051365;28;20052;-71
2022/11/29 11:07:37;;;;;;;6.10;4.88;;;9.80;99.90;;;;;;5051473;28;20497;-71
2022/11/29 11:10:19;;;;;;;5.68;4.30;;;9.50;99.90;;;;;;5050845;28;20175;-71
2022/11/29 11:13:05;;;;;;;6.75;5.13;;;9.10;99.90;;;;;;5051026;28;20405;-71
2022/11/29 11:15:32;;;;;;;8.75;5.45;;;9.70;99.90;;;;;;5034335;28;20049;-71
2022/11/29 11:18:02;;;;;;;7.03;5.05;;;9.80;99.90;;;;;;5051021;28;20053;-71
2022/11/29 11:20:30;;;;;;;8.05;5.03;;;9.20;99.90;;;;;;5051323;28;20063;-71
2022/11/29 11:23:07;;;;;;;7.88;5.10;;;10.00;99.90;;;;;;5050965;28;20049;-71
2022/11/29 11:25:34;;;;;;;;;;;9.90;99.90;;;;;;5051361;28;20471;-70
2022/11/29 11:28:21;;;;;;;9.88;6.43;;;9.90;99.90;;;;;;5050835;28;20389;-71
2022/11/29 11:30:58;;;;;;;9.10;6.28;;;9.30;99.90;;;;;;5051988;28;20506;-70
2022/11/29 11:33:27;;;;;;;7.60;5.53;;;9.50;99.90;;;;;;5050694;28;20546;-71
2022/11/29 11:36:19;;;;;;;6.28;4.70;;;9.90;99.90;;;;;;5050919;28;20047;-71
2022/11/29 11:38:52;;;;;;;5.72;4.07;;;9.70;99.90;;;;;;5048591;28;20156;-71
2022/11/29 11:41:20;;;;;;;6.15;4.22;;;9.90;99.90;;;;;;5034109;28;20052;-71
2022/11/29 11:43:57;;;;;;;7.07;4.50;;;9.80;99.90;;;;;;5050510;28;20095;-71
2022/11/29 11:46:43;;;;;;;7.28;5.20;;;9.70;99.90;;;;;;5050579;28;20514;-71
2022/11/29 11:49:22;;;;;;;5.22;3.78;;;9.30;99.90;;;;;;5064933;28;20127;-71
2022/11/29 11:51:48;;;;;;;5.68;4.10;;;9.30;99.90;;;;;;5070445;28;20049;-71
2022/11/29 11:54:15;;;;;;;7.07;4.75;;;9.30;99.90;;;;;;5070631;28;20041;-71
2022/11/29 11:56:41;;;;;;;5.55;3.97;;;9.50;99.90;;;;;;5053620;28;20055;-71
2022/11/29 11:59:17;;;;;;;6.32;4.13;;;9.30;99.90;;;;;;5070539;28;20618;-71
2022/11/29 12:01:43;;;;;;;6.43;4.10;;;9.30;99.90;;;;;;5070388;28;20505;-72
2022/11/29 12:04:29;;;;;;;7.28;5.03;;;9.60;99.90;;;;;;5070284;28;20045;-70
2022/11/29 12:07:02;;;;;;;6.55;4.65;;;9.10;99.90;;;;;;5070049;28;20052;-71
2022/11/29 12:09:36;;;;;;;5.25;4.15;;;9.20;99.90;;;;;;5053365;28;20051;-70
2022/11/29 12:12:10;;;;;;;5.65;4.30;;;9.20;99.90;;;;;;5053379;28;20124;-70
2022/11/29 12:14:44;;;;;;;9.13;6.47;;;9.60;99.90;;;;;;5069970;28;20067;-71
2022/11/29 12:17:41;;;;;;;7.00;5.45;;;9.10;99.90;;;;;;5069867;28;20499;-71
2022/11/29 12:20:15;;;;;;;5.85;4.82;;;9.10;99.90;;;;;;5053323;28;20443;-71
2022/11/29 12:23:03;;;;;;;5.28;3.95;;;9.30;99.90;;;;;;5053387;28;20050;-70
2022/11/29 12:25:49;;;;;;;4.80;3.97;;;9.20;99.90;;;;;;5053107;28;20141;-70
2022/11/29 12:28:16;;;;;;;5.20;4.45;;;9.20;99.90;;;;;;5069110;28;20040;-71
2022/11/29 12:30:54;;;;;;;6.57;4.65;;;9.10;99.90;;;;;;5069561;28;20047;-71
2022/11/29 12:33:43;;;;;;;4.90;4.40;;;9.10;99.90;;;;;;5069603;28;20063;-70
2022/11/29 12:36:42;;;;;;;5.90;5.00;;;9.00;99.90;;;;;;5070771;28;20115;-71
2022/11/29 12:39:38;;;;;;;5.95;4.85;;;9.10;99.90;;;;;;5052618;28;20088;-76
2022/11/29 12:42:13;;;;;;;6.50;5.00;;;9.10;99.90;;;;;;5038277;28;20362;-70
2022/11/29 12:44:47;;;;;;;5.72;5.10;;;8.90;99.90;;;;;;5052324;28;20119;-70
2022/11/29 12:47:26;;;;;;;5.07;4.57;;;8.90;99.90;;;;;;5063900;28;20044;-70
2022/11/29 12:50:56;;;;;;;5.15;4.30;;;8.80;99.90;;;;;;5057883;28;20048;-70
2022/11/29 12:53:27;;;;;;;5.18;4.47;;;8.70;99.90;;;;;;4971289;28;20050;-70
2022/11/29 12:56:00;;;;;;;6.72;5.53;;;8.80;99.90;;;;;;4991746;28;20053;-70
2022/11/29 12:58:52;;;;;;;7.55;6.30;;;8.80;99.90;;;;;;5032678;28;20118;-70
2022/11/29 13:01:27;;;;;;;6.05;5.35;;;8.60;99.90;;;;;;5063644;28;20062;-70
2022/11/29 13:04:19;;;;;;;7.45;5.65;;;8.60;99.90;;;;;;5067752;28;20048;-75
2022/11/29 13:06:53;;;;;;;6.32;5.70;;;8.70;99.90;;;;;;5069379;28;20123;-76
2022/11/29 13:09:48;;;;;;;5.80;5.10;;;8.50;99.90;;;;;;5065757;28;20130;-74
2022/11/29 13:12:40;;;;;;;6.07;5.47;;;8.60;99.90;;;;;;5057611;28;20055;-75
2022/11/29 13:15:13;;;;;;;5.78;5.05;;;8.50;99.90;;;;;;5065783;28;20112;-76
2022/11/29 13:17:51;;;;;;;7.38;6.25;;;8.50;99.90;;;;;;5059594;28;20112;-76
2022/11/29 13:20:32;;;;;;;7.05;6.30;;;8.40;99.90;;;;;;5067895;28;20162;-75
2022/11/29 13:23:42;;;;;;;7.78;6.28;;;8.30;99.90;;;;;;5063057;28;20048;-76
2022/11/29 13:26:11;;;;;;;7.88;6.75;;;8.30;99.90;;;;;;5049608;28;20044;-75
2022/11/29 13:28:40;;;;;;;7.47;6.22;;;8.20;99.90;;;;;;5056637;28;20522;-74
2022/11/29 13:31:11;;;;;;;8.52;7.30;;;8.30;99.90;;;;;;5049635;28;20119;-76
2022/11/29 13:33:46;;;;;;;6.35;5.75;;;8.20;99.90;;;;;;5049592;28;20064;-75
2022/11/29 13:36:18;;;;;;;6.50;5.80;;;8.20;99.90;;;;;;5068744;28;20033;-76
2022/11/29 13:39:12;;;;;;;7.60;6.80;;;8.10;99.90;;;;;;5066486;28;20132;-75
2022/11/29 13:42:01;;;;;;;7.07;6.38;;;8.10;99.90;;;;;;5054313;28;20061;-75
2022/11/29 13:44:31;;;;;;;7.25;6.30;;;8.10;99.90;;;;;;5035727;28;20491;-75
2022/11/29 13:47:11;;;;;;;7.60;6.25;;;8.10;99.90;;;;;;5037528;28;20049;-76
2022/11/29 13:50:25;;;;;;;6.90;5.57;;;8.00;99.90;;;;;;5055487;28;20099;-71
2022/11/29 13:53:03;;;;;;;7.50;6.40;;;8.00;99.90;;;;;;5052425;28;20051;-71
2022/11/29 13:55:30;;;;;;;7.93;6.20;;;8.00;99.90;;;;;;5035872;28;20070;-71
2022/11/29 13:57:59;;;;;;;7.63;6.50;;;8.00;99.90;;;;;;5055231;28;20072;-70
2022/11/29 14:00:36;;;;;;;6.05;5.45;;;8.10;99.90;;;;;;5052514;28;20044;-70